sensor_id;sensor_type;location;lat;lon;timestamp;P1;durP1;ratioP1;P2;durP2;ratioP2
1000;SDS011;489;47.806;12.858;2023-04-24T00:02:02;0.60;;;0.60;;
1000;SDS011;489;47.806;12.858;2023-04-24T00:04:04;1.80;;;0.80;;
1000;SDS011;489;47.806;12.858;2023-04-24T00:06:07;0.70;;;0.70;;
1000;SDS011;489;47.806;12.858;2023-04-24T00:08:09;0.67;;;0.67;;
1000;SDS011;489;47.806;12.858;2023-04-24T00:10:11;0.70;;;0.60;;
1000;SDS011;489;47.806;12.858;2023-04-24T00:12:13;0.63;;;0.60;;
1000;SDS011;489;47.806;12.858;2023-04-24T00:14:15;0.80;;;0.80;;
1000;SDS011;489;47.806;12.858;2023-04-24T00:16:17;0.60;;;0.60;;
1000;SDS011;489;47.806;12.858;2023-04-24T00:18:20;2.83;;;0.60;;
1000;SDS011;489;47.806;12.858;2023-04-24T00:20:22;0.50;;;0.43;;
1000;SDS011;489;47.806;12.858;2023-04-24T00:22:24;0.47;;;0.47;;
1000;SDS011;489;47.806;12.858;2023-04-24T00:24:26;0.70;;;0.70;;
1000;SDS011;489;47.806;12.858;2023-04-24T00:26:28;0.60;;;0.60;;
1000;SDS011;489;47.806;12.858;2023-04-24T00:28:30;0.60;;;0.57;;
1000;SDS011;489;47.806;12.858;2023-04-24T00:30:32;0.63;;;0.50;;
1000;SDS011;489;47.806;12.858;2023-04-24T00:32:34;0.80;;;0.50;;
1000;SDS011;489;47.806;12.858;2023-04-24T00:34:37;0.50;;;0.33;;
1000;SDS011;489;47.806;12.858;2023-04-24T00:36:39;0.40;;;0.40;;
1000;SDS011;489;47.806;12.858;2023-04-24T00:38:41;0.80;;;0.40;;
1000;SDS011;489;47.806;12.858;2023-04-24T00:40:43;0.60;;;0.60;;
1000;SDS011;489;47.806;12.858;2023-04-24T00:42:45;0.57;;;0.57;;
1000;SDS011;489;47.806;12.858;2023-04-24T00:44:47;0.57;;;0.57;;
1000;SDS011;489;47.806;12.858;2023-04-24T00:46:49;0.70;;;0.60;;
1000;SDS011;489;47.806;12.858;2023-04-24T00:48:54;0.40;;;0.37;;
1000;SDS011;489;47.806;12.858;2023-04-24T00:50:59;0.60;;;0.50;;
1000;SDS011;489;47.806;12.858;2023-04-24T00:53:01;0.47;;;0.40;;
1000;SDS011;489;47.806;12.858;2023-04-24T00:55:03;0.57;;;0.50;;
1000;SDS011;489;47.806;12.858;2023-04-24T00:57:05;1.17;;;0.57;;
1000;SDS011;489;47.806;12.858;2023-04-24T00:59:07;0.90;;;0.60;;
1000;SDS011;489;47.806;12.858;2023-04-24T01:01:09;0.70;;;0.60;;
1000;SDS011;489;47.806;12.858;2023-04-24T01:03:12;0.67;;;0.67;;
1000;SDS011;489;47.806;12.858;2023-04-24T01:05:14;0.50;;;0.40;;
1000;SDS011;489;47.806;12.858;2023-04-24T01:07:19;0.93;;;0.70;;
1000;SDS011;489;47.806;12.858;2023-04-24T01:09:21;0.87;;;0.50;;
1000;SDS011;489;47.806;12.858;2023-04-24T01:11:25;0.40;;;0.40;;
1000;SDS011;489;47.806;12.858;2023-04-24T01:13:27;0.50;;;0.50;;
1000;SDS011;489;47.806;12.858;2023-04-24T01:15:29;1.20;;;0.43;;
1000;SDS011;489;47.806;12.858;2023-04-24T01:17:31;0.60;;;0.50;;
1000;SDS011;489;47.806;12.858;2023-04-24T01:19:33;0.83;;;0.63;;
1000;SDS011;489;47.806;12.858;2023-04-24T01:21:36;0.70;;;0.60;;
1000;SDS011;489;47.806;12.858;2023-04-24T01:23:39;0.57;;;0.57;;
1000;SDS011;489;47.806;12.858;2023-04-24T01:25:41;0.40;;;0.40;;
1000;SDS011;489;47.806;12.858;2023-04-24T01:27:44;0.80;;;0.50;;
1000;SDS011;489;47.806;12.858;2023-04-24T01:29:46;0.90;;;0.50;;
1000;SDS011;489;47.806;12.858;2023-04-24T01:31:49;0.57;;;0.50;;
1000;SDS011;489;47.806;12.858;2023-04-24T01:33:52;0.50;;;0.50;;
1000;SDS011;489;47.806;12.858;2023-04-24T01:35:54;0.63;;;0.63;;
1000;SDS011;489;47.806;12.858;2023-04-24T01:37:56;0.90;;;0.50;;
1000;SDS011;489;47.806;12.858;2023-04-24T01:40:00;0.50;;;0.50;;
1000;SDS011;489;47.806;12.858;2023-04-24T01:42:04;0.53;;;0.47;;
1000;SDS011;489;47.806;12.858;2023-04-24T01:44:07;0.50;;;0.40;;
1000;SDS011;489;47.806;12.858;2023-04-24T01:46:09;1.27;;;0.40;;
1000;SDS011;489;47.806;12.858;2023-04-24T01:48:11;0.60;;;0.60;;
1000;SDS011;489;47.806;12.858;2023-04-24T01:50:14;0.50;;;0.50;;
1000;SDS011;489;47.806;12.858;2023-04-24T01:52:16;0.60;;;0.60;;
1000;SDS011;489;47.806;12.858;2023-04-24T01:54:18;1.03;;;0.50;;
1000;SDS011;489;47.806;12.858;2023-04-24T01:56:22;3.23;;;0.70;;
1000;SDS011;489;47.806;12.858;2023-04-24T01:58:24;0.60;;;0.60;;
1000;SDS011;489;47.806;12.858;2023-04-24T02:00:27;0.73;;;0.73;;
1000;SDS011;489;47.806;12.858;2023-04-24T02:02:28;0.97;;;0.60;;
1000;SDS011;489;47.806;12.858;2023-04-24T02:04:31;0.60;;;0.43;;
1000;SDS011;489;47.806;12.858;2023-04-24T02:06:33;1.00;;;0.57;;
1000;SDS011;489;47.806;12.858;2023-04-24T02:08:34;0.80;;;0.60;;
1000;SDS011;489;47.806;12.858;2023-04-24T02:10:36;1.07;;;0.60;;
1000;SDS011;489;47.806;12.858;2023-04-24T02:12:40;0.60;;;0.60;;
1000;SDS011;489;47.806;12.858;2023-04-24T02:14:42;0.70;;;0.60;;
1000;SDS011;489;47.806;12.858;2023-04-24T02:16:44;0.97;;;0.70;;
1000;SDS011;489;47.806;12.858;2023-04-24T02:18:46;1.00;;;0.73;;
1000;SDS011;489;47.806;12.858;2023-04-24T02:20:51;0.70;;;0.70;;
1000;SDS011;489;47.806;12.858;2023-04-24T02:22:54;0.50;;;0.50;;
1000;SDS011;489;47.806;12.858;2023-04-24T02:24:56;0.90;;;0.80;;
1000;SDS011;489;47.806;12.858;2023-04-24T02:26:58;1.57;;;1.17;;
1000;SDS011;489;47.806;12.858;2023-04-24T02:29:02;1.50;;;1.33;;
1000;SDS011;489;47.806;12.858;2023-04-24T02:31:03;2.87;;;1.40;;
1000;SDS011;489;47.806;12.858;2023-04-24T02:33:06;2.20;;;0.73;;
1000;SDS011;489;47.806;12.858;2023-04-24T02:35:08;0.70;;;0.70;;
1000;SDS011;489;47.806;12.858;2023-04-24T02:37:10;1.13;;;1.00;;
1000;SDS011;489;47.806;12.858;2023-04-24T02:39:12;0.60;;;0.60;;
1000;SDS011;489;47.806;12.858;2023-04-24T02:41:16;1.40;;;1.30;;
1000;SDS011;489;47.806;12.858;2023-04-24T02:43:18;2.17;;;0.90;;
1000;SDS011;489;47.806;12.858;2023-04-24T02:45:22;1.50;;;1.40;;
1000;SDS011;489;47.806;12.858;2023-04-24T02:47:24;1.77;;;1.47;;
1000;SDS011;489;47.806;12.858;2023-04-24T02:49:26;3.63;;;1.87;;
1000;SDS011;489;47.806;12.858;2023-04-24T02:51:28;2.20;;;1.50;;
1000;SDS011;489;47.806;12.858;2023-04-24T02:53:31;1.47;;;1.13;;
1000;SDS011;489;47.806;12.858;2023-04-24T02:55:33;1.10;;;0.83;;
1000;SDS011;489;47.806;12.858;2023-04-24T02:57:36;0.90;;;0.90;;
1000;SDS011;489;47.806;12.858;2023-04-24T02:59:38;0.77;;;0.77;;
1000;SDS011;489;47.806;12.858;2023-04-24T03:01:41;1.40;;;1.10;;
1000;SDS011;489;47.806;12.858;2023-04-24T03:03:43;2.20;;;1.87;;
1000;SDS011;489;47.806;12.858;2023-04-24T03:05:45;4.50;;;2.90;;
1000;SDS011;489;47.806;12.858;2023-04-24T03:07:47;2.30;;;1.60;;
1000;SDS011;489;47.806;12.858;2023-04-24T03:09:49;2.00;;;1.43;;
1000;SDS011;489;47.806;12.858;2023-04-24T03:11:51;2.03;;;1.50;;
1000;SDS011;489;47.806;12.858;2023-04-24T03:13:53;1.57;;;1.47;;
1000;SDS011;489;47.806;12.858;2023-04-24T03:15:55;1.17;;;1.00;;
1000;SDS011;489;47.806;12.858;2023-04-24T03:17:59;0.90;;;0.90;;
1000;SDS011;489;47.806;12.858;2023-04-24T03:20:01;0.67;;;0.67;;
1000;SDS011;489;47.806;12.858;2023-04-24T03:22:05;1.30;;;1.20;;
1000;SDS011;489;47.806;12.858;2023-04-24T03:24:10;1.10;;;0.90;;
1000;SDS011;489;47.806;12.858;2023-04-24T03:26:12;1.00;;;0.87;;
1000;SDS011;489;47.806;12.858;2023-04-24T03:28:25;0.90;;;0.80;;
1000;SDS011;489;47.806;12.858;2023-04-24T03:30:36;0.63;;;0.63;;
1000;SDS011;489;47.806;12.858;2023-04-24T03:32:39;0.50;;;0.50;;
1000;SDS011;489;47.806;12.858;2023-04-24T03:34:45;0.67;;;0.67;;
1000;SDS011;489;47.806;12.858;2023-04-24T03:36:48;0.60;;;0.60;;
1000;SDS011;489;47.806;12.858;2023-04-24T03:38:53;0.80;;;0.80;;
1000;SDS011;489;47.806;12.858;2023-04-24T03:41:02;0.80;;;0.80;;
1000;SDS011;489;47.806;12.858;2023-04-24T03:43:14;0.70;;;0.70;;
1000;SDS011;489;47.806;12.858;2023-04-24T03:45:18;1.27;;;1.10;;
1000;SDS011;489;47.806;12.858;2023-04-24T03:47:23;2.10;;;1.70;;
1000;SDS011;489;47.806;12.858;2023-04-24T03:49:27;1.20;;;1.10;;
1000;SDS011;489;47.806;12.858;2023-04-24T03:51:31;2.30;;;1.33;;
1000;SDS011;489;47.806;12.858;2023-04-24T03:53:48;2.90;;;1.57;;
1000;SDS011;489;47.806;12.858;2023-04-24T03:55:53;2.47;;;1.70;;
1000;SDS011;489;47.806;12.858;2023-04-24T03:57:55;2.20;;;1.80;;
1000;SDS011;489;47.806;12.858;2023-04-24T03:59:57;2.43;;;1.63;;
1000;SDS011;489;47.806;12.858;2023-04-24T04:02:00;4.60;;;1.50;;
1000;SDS011;489;47.806;12.858;2023-04-24T04:04:01;1.40;;;1.20;;
1000;SDS011;489;47.806;12.858;2023-04-24T04:06:04;1.20;;;1.10;;
1000;SDS011;489;47.806;12.858;2023-04-24T04:08:07;1.53;;;1.20;;
1000;SDS011;489;47.806;12.858;2023-04-24T04:10:10;3.00;;;1.40;;
1000;SDS011;489;47.806;12.858;2023-04-24T04:12:12;3.97;;;3.07;;
1000;SDS011;489;47.806;12.858;2023-04-24T04:14:14;4.17;;;3.77;;
1000;SDS011;489;47.806;12.858;2023-04-24T04:16:38;5.70;;;3.80;;
1000;SDS011;489;47.806;12.858;2023-04-24T04:18:40;3.60;;;2.83;;
1000;SDS011;489;47.806;12.858;2023-04-24T04:20:42;2.40;;;1.00;;
1000;SDS011;489;47.806;12.858;2023-04-24T04:22:49;1.43;;;1.03;;
1000;SDS011;489;47.806;12.858;2023-04-24T04:24:59;1.20;;;1.10;;
1000;SDS011;489;47.806;12.858;2023-04-24T04:27:03;1.20;;;1.10;;
1000;SDS011;489;47.806;12.858;2023-04-24T04:29:11;1.63;;;1.53;;
1000;SDS011;489;47.806;12.858;2023-04-24T04:31:17;1.00;;;1.00;;
1000;SDS011;489;47.806;12.858;2023-04-24T04:33:19;3.43;;;1.87;;
1000;SDS011;489;47.806;12.858;2023-04-24T04:35:22;1.70;;;1.20;;
1000;SDS011;489;47.806;12.858;2023-04-24T04:37:26;1.73;;;1.10;;
1000;SDS011;489;47.806;12.858;2023-04-24T04:39:53;0.90;;;0.90;;
1000;SDS011;489;47.806;12.858;2023-04-24T04:41:59;1.30;;;1.00;;
1000;SDS011;489;47.806;12.858;2023-04-24T04:44:10;1.30;;;1.20;;
1000;SDS011;489;47.806;12.858;2023-04-24T04:46:13;1.43;;;1.33;;
1000;SDS011;489;47.806;12.858;2023-04-24T04:48:25;1.70;;;1.10;;
1000;SDS011;489;47.806;12.858;2023-04-24T04:50:29;0.80;;;0.80;;
1000;SDS011;489;47.806;12.858;2023-04-24T04:52:36;1.90;;;0.67;;
1000;SDS011;489;47.806;12.858;2023-04-24T04:54:49;0.53;;;0.53;;
1000;SDS011;489;47.806;12.858;2023-04-24T04:56:51;1.27;;;0.70;;
1000;SDS011;489;47.806;12.858;2023-04-24T04:58:54;0.93;;;0.70;;
1000;SDS011;489;47.806;12.858;2023-04-24T05:00:56;0.70;;;0.57;;
1000;SDS011;489;47.806;12.858;2023-04-24T05:03:09;0.90;;;0.60;;
1000;SDS011;489;47.806;12.858;2023-04-24T05:05:13;0.50;;;0.50;;
1000;SDS011;489;47.806;12.858;2023-04-24T05:07:15;9.37;;;6.50;;
1000;SDS011;489;47.806;12.858;2023-04-24T05:09:22;2.93;;;2.00;;
1000;SDS011;489;47.806;12.858;2023-04-24T05:11:31;0.60;;;0.60;;
1000;SDS011;489;47.806;12.858;2023-04-24T05:13:35;1.40;;;0.60;;
1000;SDS011;489;47.806;12.858;2023-04-24T05:15:41;0.70;;;0.70;;
1000;SDS011;489;47.806;12.858;2023-04-24T05:17:43;1.00;;;0.70;;
1000;SDS011;489;47.806;12.858;2023-04-24T05:19:47;0.60;;;0.40;;
1000;SDS011;489;47.806;12.858;2023-04-24T05:21:50;0.60;;;0.43;;
1000;SDS011;489;47.806;12.858;2023-04-24T05:23:52;0.50;;;0.40;;
1000;SDS011;489;47.806;12.858;2023-04-24T05:26:14;0.60;;;0.50;;
1000;SDS011;489;47.806;12.858;2023-04-24T05:28:18;0.60;;;0.40;;
1000;SDS011;489;47.806;12.858;2023-04-24T05:30:27;0.60;;;0.60;;
1000;SDS011;489;47.806;12.858;2023-04-24T05:32:31;0.60;;;0.60;;
1000;SDS011;489;47.806;12.858;2023-04-24T05:34:32;0.40;;;0.40;;
1000;SDS011;489;47.806;12.858;2023-04-24T05:36:35;0.50;;;0.40;;
1000;SDS011;489;47.806;12.858;2023-04-24T05:38:37;0.60;;;0.53;;
1000;SDS011;489;47.806;12.858;2023-04-24T05:40:39;0.60;;;0.50;;
1000;SDS011;489;47.806;12.858;2023-04-24T05:42:41;0.60;;;0.50;;
1000;SDS011;489;47.806;12.858;2023-04-24T05:44:43;0.60;;;0.60;;
1000;SDS011;489;47.806;12.858;2023-04-24T05:46:45;0.40;;;0.30;;
1000;SDS011;489;47.806;12.858;2023-04-24T05:48:48;0.40;;;0.30;;
1000;SDS011;489;47.806;12.858;2023-04-24T05:50:50;0.60;;;0.60;;
1000;SDS011;489;47.806;12.858;2023-04-24T05:52:52;1.13;;;0.60;;
1000;SDS011;489;47.806;12.858;2023-04-24T05:54:59;0.43;;;0.43;;
1000;SDS011;489;47.806;12.858;2023-04-24T05:57:06;0.40;;;0.30;;
1000;SDS011;489;47.806;12.858;2023-04-24T05:59:22;0.50;;;0.50;;
1000;SDS011;489;47.806;12.858;2023-04-24T06:01:25;0.70;;;0.40;;
1000;SDS011;489;47.806;12.858;2023-04-24T06:03:37;2.00;;;0.70;;
1000;SDS011;489;47.806;12.858;2023-04-24T06:05:41;1.70;;;0.80;;
1000;SDS011;489;47.806;12.858;2023-04-24T06:07:43;1.87;;;1.07;;
1000;SDS011;489;47.806;12.858;2023-04-24T06:09:46;1.07;;;0.67;;
1000;SDS011;489;47.806;12.858;2023-04-24T06:11:48;0.77;;;0.70;;
1000;SDS011;489;47.806;12.858;2023-04-24T06:13:51;0.70;;;0.60;;
1000;SDS011;489;47.806;12.858;2023-04-24T06:16:16;0.70;;;0.70;;
1000;SDS011;489;47.806;12.858;2023-04-24T06:18:25;0.70;;;0.60;;
1000;SDS011;489;47.806;12.858;2023-04-24T06:20:27;0.60;;;0.60;;
1000;SDS011;489;47.806;12.858;2023-04-24T06:22:31;0.67;;;0.60;;
1000;SDS011;489;47.806;12.858;2023-04-24T06:24:33;0.80;;;0.57;;
1000;SDS011;489;47.806;12.858;2023-04-24T06:26:35;0.80;;;0.50;;
1000;SDS011;489;47.806;12.858;2023-04-24T06:28:37;0.97;;;0.70;;
1000;SDS011;489;47.806;12.858;2023-04-24T06:30:39;0.80;;;0.60;;
1000;SDS011;489;47.806;12.858;2023-04-24T06:32:42;0.80;;;0.60;;
1000;SDS011;489;47.806;12.858;2023-04-24T06:34:43;0.40;;;0.40;;
1000;SDS011;489;47.806;12.858;2023-04-24T06:36:46;0.40;;;0.40;;
1000;SDS011;489;47.806;12.858;2023-04-24T06:38:49;0.60;;;0.60;;
1000;SDS011;489;47.806;12.858;2023-04-24T06:40:51;0.40;;;0.40;;
1000;SDS011;489;47.806;12.858;2023-04-24T06:42:53;0.50;;;0.50;;
1000;SDS011;489;47.806;12.858;2023-04-24T06:44:56;0.40;;;0.40;;
1000;SDS011;489;47.806;12.858;2023-04-24T06:46:58;0.40;;;0.37;;
1000;SDS011;489;47.806;12.858;2023-04-24T06:49:00;1.03;;;0.50;;
1000;SDS011;489;47.806;12.858;2023-04-24T06:51:02;0.53;;;0.40;;
1000;SDS011;489;47.806;12.858;2023-04-24T06:53:04;0.40;;;0.40;;
1000;SDS011;489;47.806;12.858;2023-04-24T06:55:08;0.30;;;0.30;;
1000;SDS011;489;47.806;12.858;2023-04-24T06:57:11;0.30;;;0.30;;
1000;SDS011;489;47.806;12.858;2023-04-24T06:59:13;1.30;;;0.47;;
1000;SDS011;489;47.806;12.858;2023-04-24T07:01:15;1.70;;;1.00;;
1000;SDS011;489;47.806;12.858;2023-04-24T07:03:17;1.03;;;0.93;;
1000;SDS011;489;47.806;12.858;2023-04-24T07:05:19;1.00;;;0.60;;
1000;SDS011;489;47.806;12.858;2023-04-24T07:07:21;0.93;;;0.67;;
1000;SDS011;489;47.806;12.858;2023-04-24T07:09:24;0.70;;;0.60;;
1000;SDS011;489;47.806;12.858;2023-04-24T07:11:28;0.60;;;0.60;;
1000;SDS011;489;47.806;12.858;2023-04-24T07:13:29;0.60;;;0.50;;
1000;SDS011;489;47.806;12.858;2023-04-24T07:15:31;1.10;;;0.53;;
1000;SDS011;489;47.806;12.858;2023-04-24T07:17:34;0.70;;;0.70;;
1000;SDS011;489;47.806;12.858;2023-04-24T07:19:36;0.93;;;0.80;;
1000;SDS011;489;47.806;12.858;2023-04-24T07:21:38;0.90;;;0.60;;
1000;SDS011;489;47.806;12.858;2023-04-24T07:23:40;0.50;;;0.50;;
1000;SDS011;489;47.806;12.858;2023-04-24T07:25:42;0.60;;;0.60;;
1000;SDS011;489;47.806;12.858;2023-04-24T07:27:45;0.80;;;0.80;;
1000;SDS011;489;47.806;12.858;2023-04-24T07:29:49;1.10;;;1.00;;
1000;SDS011;489;47.806;12.858;2023-04-24T07:31:51;0.97;;;0.90;;
1000;SDS011;489;47.806;12.858;2023-04-24T07:33:54;1.23;;;0.90;;
1000;SDS011;489;47.806;12.858;2023-04-24T07:35:58;0.73;;;0.70;;
1000;SDS011;489;47.806;12.858;2023-04-24T07:38:00;0.67;;;0.57;;
1000;SDS011;489;47.806;12.858;2023-04-24T07:40:02;0.70;;;0.67;;
1000;SDS011;489;47.806;12.858;2023-04-24T07:42:05;0.60;;;0.60;;
1000;SDS011;489;47.806;12.858;2023-04-24T07:44:08;0.60;;;0.50;;
1000;SDS011;489;47.806;12.858;2023-04-24T07:46:10;0.80;;;0.80;;
1000;SDS011;489;47.806;12.858;2023-04-24T07:48:12;0.73;;;0.70;;
1000;SDS011;489;47.806;12.858;2023-04-24T07:50:16;0.80;;;0.70;;
1000;SDS011;489;47.806;12.858;2023-04-24T07:52:18;1.43;;;0.80;;
1000;SDS011;489;47.806;12.858;2023-04-24T07:54:20;0.70;;;0.70;;
1000;SDS011;489;47.806;12.858;2023-04-24T07:56:22;1.27;;;0.70;;
1000;SDS011;489;47.806;12.858;2023-04-24T07:58:24;0.50;;;0.50;;
1000;SDS011;489;47.806;12.858;2023-04-24T08:00:28;0.83;;;0.83;;
1000;SDS011;489;47.806;12.858;2023-04-24T08:02:30;0.60;;;0.60;;
1000;SDS011;489;47.806;12.858;2023-04-24T08:04:32;0.47;;;0.40;;
1000;SDS011;489;47.806;12.858;2023-04-24T08:06:34;1.17;;;0.40;;
1000;SDS011;489;47.806;12.858;2023-04-24T08:08:36;0.50;;;0.50;;
1000;SDS011;489;47.806;12.858;2023-04-24T08:10:38;0.50;;;0.43;;
1000;SDS011;489;47.806;12.858;2023-04-24T08:12:40;0.40;;;0.30;;
1000;SDS011;489;47.806;12.858;2023-04-24T08:14:42;0.40;;;0.40;;
1000;SDS011;489;47.806;12.858;2023-04-24T08:16:46;0.80;;;0.80;;
1000;SDS011;489;47.806;12.858;2023-04-24T08:18:48;0.53;;;0.47;;
1000;SDS011;489;47.806;12.858;2023-04-24T08:20:50;0.50;;;0.50;;
1000;SDS011;489;47.806;12.858;2023-04-24T08:22:52;0.47;;;0.40;;
1000;SDS011;489;47.806;12.858;2023-04-24T08:24:54;0.40;;;0.33;;
1000;SDS011;489;47.806;12.858;2023-04-24T08:27:00;0.47;;;0.30;;
1000;SDS011;489;47.806;12.858;2023-04-24T08:29:01;0.50;;;0.47;;
1000;SDS011;489;47.806;12.858;2023-04-24T08:31:26;0.40;;;0.40;;
1000;SDS011;489;47.806;12.858;2023-04-24T08:33:29;0.90;;;0.80;;
1000;SDS011;489;47.806;12.858;2023-04-24T08:35:34;1.37;;;1.27;;
1000;SDS011;489;47.806;12.858;2023-04-24T08:37:36;1.40;;;1.30;;
1000;SDS011;489;47.806;12.858;2023-04-24T08:39:38;1.13;;;0.60;;
1000;SDS011;489;47.806;12.858;2023-04-24T08:41:41;0.97;;;0.63;;
1000;SDS011;489;47.806;12.858;2023-04-24T08:44:04;1.17;;;0.77;;
1000;SDS011;489;47.806;12.858;2023-04-24T08:46:07;0.40;;;0.40;;
1000;SDS011;489;47.806;12.858;2023-04-24T08:48:10;0.80;;;0.60;;
1000;SDS011;489;47.806;12.858;2023-04-24T08:50:13;2.33;;;0.50;;
1000;SDS011;489;47.806;12.858;2023-04-24T08:52:15;0.40;;;0.40;;
1000;SDS011;489;47.806;12.858;2023-04-24T08:54:18;0.43;;;0.40;;
1000;SDS011;489;47.806;12.858;2023-04-24T08:56:20;0.40;;;0.40;;
1000;SDS011;489;47.806;12.858;2023-04-24T08:58:24;0.40;;;0.30;;
1000;SDS011;489;47.806;12.858;2023-04-24T09:00:27;0.40;;;0.30;;
1000;SDS011;489;47.806;12.858;2023-04-24T09:02:29;0.40;;;0.30;;
1000;SDS011;489;47.806;12.858;2023-04-24T09:04:32;0.40;;;0.33;;
1000;SDS011;489;47.806;12.858;2023-04-24T09:06:36;0.80;;;0.30;;
1000;SDS011;489;47.806;12.858;2023-04-24T09:08:38;0.40;;;0.40;;
1000;SDS011;489;47.806;12.858;2023-04-24T09:10:41;0.73;;;0.40;;
1000;SDS011;489;47.806;12.858;2023-04-24T09:12:43;0.40;;;0.30;;
1000;SDS011;489;47.806;12.858;2023-04-24T09:14:45;0.93;;;0.30;;
1000;SDS011;489;47.806;12.858;2023-04-24T09:16:47;0.30;;;0.30;;
1000;SDS011;489;47.806;12.858;2023-04-24T09:18:49;1.30;;;0.50;;
1000;SDS011;489;47.806;12.858;2023-04-24T09:20:58;0.40;;;0.30;;
1000;SDS011;489;47.806;12.858;2023-04-24T09:23:03;0.50;;;0.40;;
1000;SDS011;489;47.806;12.858;2023-04-24T09:25:05;0.53;;;0.47;;
1000;SDS011;489;47.806;12.858;2023-04-24T09:27:10;0.90;;;0.30;;
1000;SDS011;489;47.806;12.858;2023-04-24T09:29:16;0.50;;;0.40;;
1000;SDS011;489;47.806;12.858;2023-04-24T09:31:19;0.40;;;0.30;;
1000;SDS011;489;47.806;12.858;2023-04-24T09:33:22;0.87;;;0.40;;
1000;SDS011;489;47.806;12.858;2023-04-24T09:35:24;0.50;;;0.40;;
1000;SDS011;489;47.806;12.858;2023-04-24T09:37:27;0.60;;;0.40;;
1000;SDS011;489;47.806;12.858;2023-04-24T09:39:31;0.40;;;0.30;;
1000;SDS011;489;47.806;12.858;2023-04-24T09:41:33;0.40;;;0.40;;
1000;SDS011;489;47.806;12.858;2023-04-24T09:43:35;0.40;;;0.40;;
1000;SDS011;489;47.806;12.858;2023-04-24T09:45:38;0.40;;;0.40;;
1000;SDS011;489;47.806;12.858;2023-04-24T09:47:40;1.03;;;0.40;;
1000;SDS011;489;47.806;12.858;2023-04-24T09:49:42;1.43;;;0.40;;
1000;SDS011;489;47.806;12.858;2023-04-24T09:51:44;2.70;;;0.73;;
1000;SDS011;489;47.806;12.858;2023-04-24T09:53:47;0.60;;;0.40;;
1000;SDS011;489;47.806;12.858;2023-04-24T09:56:06;0.30;;;0.30;;
1000;SDS011;489;47.806;12.858;2023-04-24T09:58:09;0.50;;;0.30;;
1000;SDS011;489;47.806;12.858;2023-04-24T10:00:11;0.30;;;0.30;;
1000;SDS011;489;47.806;12.858;2023-04-24T10:02:17;0.40;;;0.40;;
1000;SDS011;489;47.806;12.858;2023-04-24T10:04:20;0.40;;;0.30;;
1000;SDS011;489;47.806;12.858;2023-04-24T10:06:29;0.40;;;0.40;;
1000;SDS011;489;47.806;12.858;2023-04-24T10:08:33;0.40;;;0.37;;
1000;SDS011;489;47.806;12.858;2023-04-24T10:10:38;0.60;;;0.57;;
1000;SDS011;489;47.806;12.858;2023-04-24T10:12:44;0.60;;;0.40;;
1000;SDS011;489;47.806;12.858;2023-04-24T10:14:45;0.50;;;0.50;;
1000;SDS011;489;47.806;12.858;2023-04-24T10:16:48;0.90;;;0.60;;
1000;SDS011;489;47.806;12.858;2023-04-24T10:18:50;0.60;;;0.60;;
1000;SDS011;489;47.806;12.858;2023-04-24T10:20:53;0.70;;;0.70;;
1000;SDS011;489;47.806;12.858;2023-04-24T10:22:56;0.87;;;0.70;;
1000;SDS011;489;47.806;12.858;2023-04-24T10:24:58;0.60;;;0.57;;
1000;SDS011;489;47.806;12.858;2023-04-24T10:27:00;0.80;;;0.80;;
1000;SDS011;489;47.806;12.858;2023-04-24T10:29:05;0.93;;;0.87;;
1000;SDS011;489;47.806;12.858;2023-04-24T10:31:10;0.70;;;0.70;;
1000;SDS011;489;47.806;12.858;2023-04-24T10:33:12;0.63;;;0.63;;
1000;SDS011;489;47.806;12.858;2023-04-24T10:35:15;0.70;;;0.70;;
1000;SDS011;489;47.806;12.858;2023-04-24T10:37:19;0.77;;;0.77;;
1000;SDS011;489;47.806;12.858;2023-04-24T10:39:22;1.17;;;0.80;;
1000;SDS011;489;47.806;12.858;2023-04-24T10:43:46;1.00;;;1.00;;
1000;SDS011;489;47.806;12.858;2023-04-24T10:46:01;1.40;;;0.97;;
1000;SDS011;489;47.806;12.858;2023-04-24T10:48:04;3.10;;;1.30;;
1000;SDS011;489;47.806;12.858;2023-04-24T10:50:11;0.80;;;0.80;;
1000;SDS011;489;47.806;12.858;2023-04-24T10:52:13;1.20;;;1.00;;
1000;SDS011;489;47.806;12.858;2023-04-24T10:54:23;2.10;;;1.10;;
1000;SDS011;489;47.806;12.858;2023-04-24T10:56:28;1.00;;;1.00;;
1000;SDS011;489;47.806;12.858;2023-04-24T10:58:37;1.20;;;1.20;;
1000;SDS011;489;47.806;12.858;2023-04-24T11:00:42;1.20;;;1.10;;
1000;SDS011;489;47.806;12.858;2023-04-24T11:02:46;1.33;;;1.23;;
1000;SDS011;489;47.806;12.858;2023-04-24T11:04:53;0.80;;;0.80;;
1000;SDS011;489;47.806;12.858;2023-04-24T11:06:55;1.00;;;1.00;;
1000;SDS011;489;47.806;12.858;2023-04-24T11:08:59;1.27;;;0.93;;
1000;SDS011;489;47.806;12.858;2023-04-24T11:11:08;2.40;;;0.90;;
1000;SDS011;489;47.806;12.858;2023-04-24T11:13:14;0.77;;;0.77;;
1000;SDS011;489;47.806;12.858;2023-04-24T11:15:16;1.20;;;1.10;;
1000;SDS011;489;47.806;12.858;2023-04-24T11:17:27;0.87;;;0.87;;
1000;SDS011;489;47.806;12.858;2023-04-24T11:19:32;1.13;;;1.10;;
1000;SDS011;489;47.806;12.858;2023-04-24T11:21:42;2.07;;;1.87;;
1000;SDS011;489;47.806;12.858;2023-04-24T11:23:45;1.40;;;1.30;;
1000;SDS011;489;47.806;12.858;2023-04-24T11:25:52;0.90;;;0.90;;
1000;SDS011;489;47.806;12.858;2023-04-24T11:28:14;0.80;;;0.80;;
1000;SDS011;489;47.806;12.858;2023-04-24T11:30:18;1.17;;;1.00;;
1000;SDS011;489;47.806;12.858;2023-04-24T11:32:25;1.30;;;1.20;;
1000;SDS011;489;47.806;12.858;2023-04-24T11:34:27;1.20;;;1.10;;
1000;SDS011;489;47.806;12.858;2023-04-24T11:36:32;1.60;;;1.50;;
1000;SDS011;489;47.806;12.858;2023-04-24T11:38:35;1.40;;;1.30;;
1000;SDS011;489;47.806;12.858;2023-04-24T11:40:37;1.00;;;1.00;;
1000;SDS011;489;47.806;12.858;2023-04-24T11:42:39;0.97;;;0.87;;
1000;SDS011;489;47.806;12.858;2023-04-24T11:44:42;0.80;;;0.80;;
1000;SDS011;489;47.806;12.858;2023-04-24T11:46:44;1.30;;;1.20;;
1000;SDS011;489;47.806;12.858;2023-04-24T11:48:47;1.23;;;1.13;;
1000;SDS011;489;47.806;12.858;2023-04-24T11:50:49;1.37;;;1.30;;
1000;SDS011;489;47.806;12.858;2023-04-24T11:52:53;1.33;;;1.23;;
1000;SDS011;489;47.806;12.858;2023-04-24T11:54:55;0.83;;;0.83;;
1000;SDS011;489;47.806;12.858;2023-04-24T11:56:57;2.00;;;1.00;;
1000;SDS011;489;47.806;12.858;2023-04-24T11:59:18;2.57;;;1.30;;
1000;SDS011;489;47.806;12.858;2023-04-24T12:01:20;1.10;;;1.10;;
1000;SDS011;489;47.806;12.858;2023-04-24T12:03:23;1.00;;;1.00;;
1000;SDS011;489;47.806;12.858;2023-04-24T12:05:26;1.40;;;1.30;;
1000;SDS011;489;47.806;12.858;2023-04-24T12:07:28;1.27;;;1.17;;
1000;SDS011;489;47.806;12.858;2023-04-24T12:09:41;1.20;;;1.10;;
1000;SDS011;489;47.806;12.858;2023-04-24T12:11:52;1.87;;;1.23;;
1000;SDS011;489;47.806;12.858;2023-04-24T12:13:55;1.07;;;1.00;;
1000;SDS011;489;47.806;12.858;2023-04-24T12:15:57;1.50;;;1.40;;
1000;SDS011;489;47.806;12.858;2023-04-24T12:17:59;1.10;;;1.00;;
1000;SDS011;489;47.806;12.858;2023-04-24T12:20:02;1.00;;;1.00;;
1000;SDS011;489;47.806;12.858;2023-04-24T12:22:05;2.60;;;1.20;;
1000;SDS011;489;47.806;12.858;2023-04-24T12:24:07;0.80;;;0.80;;
1000;SDS011;489;47.806;12.858;2023-04-24T12:26:11;1.40;;;1.30;;
1000;SDS011;489;47.806;12.858;2023-04-24T12:28:12;1.30;;;0.83;;
1000;SDS011;489;47.806;12.858;2023-04-24T12:30:15;1.03;;;1.00;;
1000;SDS011;489;47.806;12.858;2023-04-24T12:32:17;1.10;;;1.10;;
1000;SDS011;489;47.806;12.858;2023-04-24T12:34:21;0.90;;;0.90;;
1000;SDS011;489;47.806;12.858;2023-04-24T12:36:23;1.20;;;1.20;;
1000;SDS011;489;47.806;12.858;2023-04-24T12:38:27;3.17;;;2.20;;
1000;SDS011;489;47.806;12.858;2023-04-24T12:40:31;1.43;;;1.33;;
1000;SDS011;489;47.806;12.858;2023-04-24T12:42:35;1.40;;;1.30;;
1000;SDS011;489;47.806;12.858;2023-04-24T12:44:38;2.60;;;1.77;;
1000;SDS011;489;47.806;12.858;2023-04-24T12:46:40;1.27;;;1.17;;
1000;SDS011;489;47.806;12.858;2023-04-24T12:48:42;2.57;;;1.30;;
1000;SDS011;489;47.806;12.858;2023-04-24T12:50:44;1.40;;;1.30;;
1000;SDS011;489;47.806;12.858;2023-04-24T12:52:47;1.10;;;1.00;;